sensor_id;sensor_type;location;lat;lon;timestamp;P1;durP1;ratioP1;P2;durP2;ratioP2
19889;SDS011;10107;51.198;6.824;2022-07-12T00:00:47;5.88;;;4.93;;
19889;SDS011;10107;51.198;6.824;2022-07-12T00:04:49;5.97;;;5.28;;
19889;SDS011;10107;51.198;6.824;2022-07-12T00:08:52;5.20;;;4.70;;
19889;SDS011;10107;51.198;6.824;2022-07-12T00:12:54;4.68;;;4.22;;
19889;SDS011;10107;51.198;6.824;2022-07-12T00:17:01;5.22;;;4.40;;
19889;SDS011;10107;51.198;6.824;2022-07-12T00:21:04;5.85;;;4.43;;
19889;SDS011;10107;51.198;6.824;2022-07-12T00:25:07;6.90;;;4.00;;
19889;SDS011;10107;51.198;6.824;2022-07-12T00:29:16;6.22;;;4.68;;
19889;SDS011;10107;51.198;6.824;2022-07-12T00:33:21;6.18;;;4.70;;
19889;SDS011;10107;51.198;6.824;2022-07-12T00:37:23;6.43;;;4.63;;
19889;SDS011;10107;51.198;6.824;2022-07-12T00:41:26;6.18;;;4.47;;
19889;SDS011;10107;51.198;6.824;2022-07-12T00:45:30;6.10;;;5.15;;
19889;SDS011;10107;51.198;6.824;2022-07-12T00:49:35;5.88;;;4.43;;
19889;SDS011;10107;51.198;6.824;2022-07-12T00:53:38;5.40;;;4.05;;
19889;SDS011;10107;51.198;6.824;2022-07-12T00:57:42;5.18;;;4.38;;
19889;SDS011;10107;51.198;6.824;2022-07-12T01:01:49;5.63;;;4.38;;
19889;SDS011;10107;51.198;6.824;2022-07-12T01:05:53;4.70;;;4.10;;
19889;SDS011;10107;51.198;6.824;2022-07-12T01:09:58;4.50;;;3.72;;
19889;SDS011;10107;51.198;6.824;2022-07-12T01:14:02;3.80;;;3.50;;
19889;SDS011;10107;51.198;6.824;2022-07-12T01:18:04;4.30;;;3.65;;
19889;SDS011;10107;51.198;6.824;2022-07-12T01:22:08;4.35;;;3.53;;
19889;SDS011;10107;51.198;6.824;2022-07-12T01:26:18;5.10;;;3.97;;
19889;SDS011;10107;51.198;6.824;2022-07-12T01:30:22;3.85;;;3.45;;
19889;SDS011;10107;51.198;6.824;2022-07-12T01:34:24;4.40;;;3.72;;
19889;SDS011;10107;51.198;6.824;2022-07-12T01:38:26;3.97;;;3.50;;
19889;SDS011;10107;51.198;6.824;2022-07-12T01:42:30;4.72;;;4.22;;
19889;SDS011;10107;51.198;6.824;2022-07-12T01:46:36;4.13;;;3.70;;
19889;SDS011;10107;51.198;6.824;2022-07-12T01:50:38;4.75;;;3.90;;
19889;SDS011;10107;51.198;6.824;2022-07-12T01:54:42;3.95;;;3.58;;
19889;SDS011;10107;51.198;6.824;2022-07-12T01:58:47;3.95;;;3.60;;
19889;SDS011;10107;51.198;6.824;2022-07-12T02:02:49;4.32;;;3.47;;
19889;SDS011;10107;51.198;6.824;2022-07-12T02:06:51;4.28;;;3.38;;
19889;SDS011;10107;51.198;6.824;2022-07-12T02:10:53;5.63;;;3.63;;
19889;SDS011;10107;51.198;6.824;2022-07-12T02:14:56;3.60;;;3.30;;
19889;SDS011;10107;51.198;6.824;2022-07-12T02:18:58;3.60;;;3.28;;
19889;SDS011;10107;51.198;6.824;2022-07-12T02:23:01;3.78;;;3.35;;
19889;SDS011;10107;51.198;6.824;2022-07-12T02:27:04;4.67;;;3.87;;
19889;SDS011;10107;51.198;6.824;2022-07-12T02:31:08;4.22;;;3.80;;
19889;SDS011;10107;51.198;6.824;2022-07-12T02:39:15;3.50;;;3.03;;
19889;SDS011;10107;51.198;6.824;2022-07-12T02:43:18;3.40;;;3.10;;
19889;SDS011;10107;51.198;6.824;2022-07-12T02:47:23;2.60;;;2.40;;
19889;SDS011;10107;51.198;6.824;2022-07-12T02:51:25;2.97;;;2.75;;
19889;SDS011;10107;51.198;6.824;2022-07-12T02:55:29;3.70;;;3.08;;
19889;SDS011;10107;51.198;6.824;2022-07-12T02:59:34;3.45;;;3.15;;
19889;SDS011;10107;51.198;6.824;2022-07-12T03:03:38;3.97;;;3.58;;
19889;SDS011;10107;51.198;6.824;2022-07-12T03:07:42;3.78;;;3.38;;
19889;SDS011;10107;51.198;6.824;2022-07-12T03:11:44;4.35;;;3.50;;
19889;SDS011;10107;51.198;6.824;2022-07-12T03:15:47;4.65;;;3.55;;
19889;SDS011;10107;51.198;6.824;2022-07-12T03:19:53;3.63;;;3.28;;
19889;SDS011;10107;51.198;6.824;2022-07-12T03:23:55;4.00;;;3.67;;
19889;SDS011;10107;51.198;6.824;2022-07-12T03:27:58;4.90;;;3.77;;
19889;SDS011;10107;51.198;6.824;2022-07-12T03:32:01;3.10;;;2.72;;
19889;SDS011;10107;51.198;6.824;2022-07-12T03:36:06;2.50;;;2.30;;
19889;SDS011;10107;51.198;6.824;2022-07-12T03:40:10;4.30;;;3.90;;
19889;SDS011;10107;51.198;6.824;2022-07-12T03:44:14;4.60;;;3.75;;
19889;SDS011;10107;51.198;6.824;2022-07-12T03:48:20;5.22;;;3.95;;
19889;SDS011;10107;51.198;6.824;2022-07-12T03:52:23;4.38;;;3.97;;
19889;SDS011;10107;51.198;6.824;2022-07-12T03:56:25;5.32;;;4.30;;
19889;SDS011;10107;51.198;6.824;2022-07-12T04:00:48;4.47;;;3.90;;
19889;SDS011;10107;51.198;6.824;2022-07-12T04:04:50;4.70;;;4.20;;
19889;SDS011;10107;51.198;6.824;2022-07-12T04:08:56;4.65;;;4.10;;
19889;SDS011;10107;51.198;6.824;2022-07-12T04:12:58;4.43;;;3.90;;
19889;SDS011;10107;51.198;6.824;2022-07-12T04:17:02;4.30;;;3.90;;
19889;SDS011;10107;51.198;6.824;2022-07-12T04:21:05;4.45;;;3.80;;
19889;SDS011;10107;51.198;6.824;2022-07-12T04:25:10;5.53;;;3.88;;
19889;SDS011;10107;51.198;6.824;2022-07-12T04:29:14;3.95;;;3.30;;
19889;SDS011;10107;51.198;6.824;2022-07-12T04:33:17;5.35;;;3.72;;
19889;SDS011;10107;51.198;6.824;2022-07-12T04:37:19;4.80;;;3.50;;
19889;SDS011;10107;51.198;6.824;2022-07-12T04:41:26;4.75;;;4.10;;
19889;SDS011;10107;51.198;6.824;2022-07-12T04:45:28;5.32;;;4.80;;
19889;SDS011;10107;51.198;6.824;2022-07-12T04:49:31;4.53;;;3.30;;
19889;SDS011;10107;51.198;6.824;2022-07-12T04:53:33;4.30;;;3.80;;
19889;SDS011;10107;51.198;6.824;2022-07-12T04:57:36;3.85;;;3.50;;
19889;SDS011;10107;51.198;6.824;2022-07-12T05:01:38;4.32;;;3.38;;
19889;SDS011;10107;51.198;6.824;2022-07-12T05:05:40;5.65;;;3.50;;
19889;SDS011;10107;51.198;6.824;2022-07-12T05:09:43;3.72;;;3.33;;
19889;SDS011;10107;51.198;6.824;2022-07-12T05:13:46;5.57;;;4.70;;
19889;SDS011;10107;51.198;6.824;2022-07-12T05:17:48;6.70;;;5.30;;
19889;SDS011;10107;51.198;6.824;2022-07-12T05:21:49;6.90;;;5.50;;
19889;SDS011;10107;51.198;6.824;2022-07-12T05:25:51;7.72;;;6.15;;
19889;SDS011;10107;51.198;6.824;2022-07-12T05:29:55;6.70;;;5.80;;
19889;SDS011;10107;51.198;6.824;2022-07-12T05:37:58;6.85;;;5.80;;
19889;SDS011;10107;51.198;6.824;2022-07-12T05:42:01;6.43;;;5.83;;
19889;SDS011;10107;51.198;6.824;2022-07-12T05:46:05;7.22;;;6.47;;
19889;SDS011;10107;51.198;6.824;2022-07-12T05:50:07;7.78;;;6.82;;
19889;SDS011;10107;51.198;6.824;2022-07-12T05:54:09;6.57;;;5.55;;
19889;SDS011;10107;51.198;6.824;2022-07-12T05:58:12;5.82;;;4.90;;
19889;SDS011;10107;51.198;6.824;2022-07-12T06:02:15;8.65;;;6.25;;
19889;SDS011;10107;51.198;6.824;2022-07-12T06:06:17;5.88;;;5.22;;
19889;SDS011;10107;51.198;6.824;2022-07-12T06:10:19;8.57;;;5.72;;
19889;SDS011;10107;51.198;6.824;2022-07-12T06:14:21;7.35;;;5.60;;
19889;SDS011;10107;51.198;6.824;2022-07-12T06:18:24;6.88;;;5.78;;
19889;SDS011;10107;51.198;6.824;2022-07-12T06:22:26;9.35;;;6.80;;
19889;SDS011;10107;51.198;6.824;2022-07-12T06:26:28;8.32;;;6.55;;
19889;SDS011;10107;51.198;6.824;2022-07-12T06:30:30;5.50;;;4.50;;
19889;SDS011;10107;51.198;6.824;2022-07-12T06:34:35;6.28;;;5.45;;
19889;SDS011;10107;51.198;6.824;2022-07-12T06:38:38;6.47;;;5.10;;
19889;SDS011;10107;51.198;6.824;2022-07-12T06:42:39;5.22;;;4.38;;
19889;SDS011;10107;51.198;6.824;2022-07-12T06:46:41;5.93;;;5.33;;
19889;SDS011;10107;51.198;6.824;2022-07-12T06:50:44;6.40;;;5.40;;
19889;SDS011;10107;51.198;6.824;2022-07-12T06:54:46;5.38;;;4.40;;
19889;SDS011;10107;51.198;6.824;2022-07-12T06:58:48;4.30;;;3.53;;
19889;SDS011;10107;51.198;6.824;2022-07-12T07:02:50;3.75;;;3.30;;
19889;SDS011;10107;51.198;6.824;2022-07-12T07:06:53;6.50;;;4.88;;
19889;SDS011;10107;51.198;6.824;2022-07-12T07:10:55;6.30;;;5.47;;
19889;SDS011;10107;51.198;6.824;2022-07-12T07:14:57;4.00;;;3.40;;
19889;SDS011;10107;51.198;6.824;2022-07-12T07:18:58;4.50;;;3.47;;
19889;SDS011;10107;51.198;6.824;2022-07-12T07:23:02;3.20;;;2.90;;
19889;SDS011;10107;51.198;6.824;2022-07-12T07:27:04;5.57;;;5.03;;
19889;SDS011;10107;51.198;6.824;2022-07-12T07:31:06;2.72;;;2.35;;
19889;SDS011;10107;51.198;6.824;2022-07-12T07:35:08;4.13;;;3.30;;
19889;SDS011;10107;51.198;6.824;2022-07-12T07:39:11;3.92;;;3.20;;
19889;SDS011;10107;51.198;6.824;2022-07-12T07:43:13;3.92;;;3.25;;
19889;SDS011;10107;51.198;6.824;2022-07-12T07:47:15;3.72;;;3.42;;
19889;SDS011;10107;51.198;6.824;2022-07-12T07:51:17;4.22;;;3.20;;
19889;SDS011;10107;51.198;6.824;2022-07-12T07:55:21;4.30;;;3.35;;
19889;SDS011;10107;51.198;6.824;2022-07-12T07:59:24;3.75;;;3.40;;
19889;SDS011;10107;51.198;6.824;2022-07-12T08:03:26;6.60;;;5.47;;
19889;SDS011;10107;51.198;6.824;2022-07-12T08:07:27;4.23;;;3.83;;
19889;SDS011;10107;51.198;6.824;2022-07-12T08:11:31;5.30;;;4.60;;
19889;SDS011;10107;51.198;6.824;2022-07-12T08:15:33;3.45;;;3.15;;
19889;SDS011;10107;51.198;6.824;2022-07-12T08:19:35;4.43;;;3.72;;
19889;SDS011;10107;51.198;6.824;2022-07-12T08:23:37;3.33;;;3.00;;
19889;SDS011;10107;51.198;6.824;2022-07-12T08:27:41;4.82;;;3.15;;
19889;SDS011;10107;51.198;6.824;2022-07-12T08:31:43;4.30;;;3.85;;
19889;SDS011;10107;51.198;6.824;2022-07-12T08:35:46;4.72;;;4.20;;
19889;SDS011;10107;51.198;6.824;2022-07-12T08:39:50;4.22;;;3.83;;
19889;SDS011;10107;51.198;6.824;2022-07-12T08:43:54;3.30;;;3.00;;
19889;SDS011;10107;51.198;6.824;2022-07-12T08:47:56;6.68;;;3.50;;
19889;SDS011;10107;51.198;6.824;2022-07-12T08:51:58;3.00;;;2.70;;
19889;SDS011;10107;51.198;6.824;2022-07-12T08:56:01;4.93;;;4.30;;
19889;SDS011;10107;51.198;6.824;2022-07-12T09:00:06;3.33;;;3.03;;
19889;SDS011;10107;51.198;6.824;2022-07-12T09:04:09;7.18;;;4.07;;
19889;SDS011;10107;51.198;6.824;2022-07-12T09:08:11;4.03;;;3.15;;
19889;SDS011;10107;51.198;6.824;2022-07-12T09:12:21;6.95;;;5.93;;
19889;SDS011;10107;51.198;6.824;2022-07-12T09:16:25;6.38;;;4.30;;
19889;SDS011;10107;51.198;6.824;2022-07-12T09:20:28;4.25;;;3.45;;
19889;SDS011;10107;51.198;6.824;2022-07-12T09:24:32;4.38;;;2.90;;
19889;SDS011;10107;51.198;6.824;2022-07-12T09:28:34;4.47;;;3.30;;
19889;SDS011;10107;51.198;6.824;2022-07-12T09:32:37;5.72;;;4.13;;
19889;SDS011;10107;51.198;6.824;2022-07-12T09:37:08;3.45;;;3.03;;
19889;SDS011;10107;51.198;6.824;2022-07-12T09:41:10;2.55;;;2.22;;
19889;SDS011;10107;51.198;6.824;2022-07-12T09:45:17;3.75;;;3.05;;
19889;SDS011;10107;51.198;6.824;2022-07-12T09:53:27;3.60;;;2.33;;
19889;SDS011;10107;51.198;6.824;2022-07-12T09:57:30;3.28;;;2.97;;
19889;SDS011;10107;51.198;6.824;2022-07-12T10:01:32;2.65;;;2.38;;
19889;SDS011;10107;51.198;6.824;2022-07-12T10:05:36;3.05;;;2.30;;
19889;SDS011;10107;51.198;6.824;2022-07-12T10:09:44;2.47;;;2.28;;
19889;SDS011;10107;51.198;6.824;2022-07-12T10:13:48;2.20;;;2.00;;
19889;SDS011;10107;51.198;6.824;2022-07-12T10:17:51;3.05;;;2.50;;
19889;SDS011;10107;51.198;6.824;2022-07-12T10:21:57;2.92;;;2.35;;
19889;SDS011;10107;51.198;6.824;2022-07-12T10:30:42;2.85;;;2.45;;
19889;SDS011;10107;51.198;6.824;2022-07-12T10:34:54;3.35;;;2.30;;
19889;SDS011;10107;51.198;6.824;2022-07-12T10:39:11;3.55;;;2.70;;
19889;SDS011;10107;51.198;6.824;2022-07-12T10:43:24;2.50;;;2.30;;
19889;SDS011;10107;51.198;6.824;2022-07-12T10:47:53;2.30;;;2.00;;
19889;SDS011;10107;51.198;6.824;2022-07-12T10:56:28;1.83;;;1.73;;
19889;SDS011;10107;51.198;6.824;2022-07-12T11:00:33;2.40;;;2.20;;
19889;SDS011;10107;51.198;6.824;2022-07-12T11:04:35;2.92;;;2.17;;
19889;SDS011;10107;51.198;6.824;2022-07-12T11:08:46;2.60;;;2.40;;
19889;SDS011;10107;51.198;6.824;2022-07-12T11:16:53;2.42;;;1.90;;
19889;SDS011;10107;51.198;6.824;2022-07-12T11:20:57;2.05;;;1.90;;
19889;SDS011;10107;51.198;6.824;2022-07-12T11:24:59;2.40;;;2.20;;
19889;SDS011;10107;51.198;6.824;2022-07-12T11:29:04;2.30;;;2.08;;
19889;SDS011;10107;51.198;6.824;2022-07-12T11:33:06;2.00;;;1.90;;
19889;SDS011;10107;51.198;6.824;2022-07-12T11:37:08;2.67;;;2.22;;
19889;SDS011;10107;51.198;6.824;2022-07-12T11:41:10;2.28;;;2.08;;
19889;SDS011;10107;51.198;6.824;2022-07-12T11:45:15;2.45;;;1.90;;
19889;SDS011;10107;51.198;6.824;2022-07-12T11:49:17;2.53;;;2.20;;
19889;SDS011;10107;51.198;6.824;2022-07-12T11:53:20;2.40;;;2.20;;
19889;SDS011;10107;51.198;6.824;2022-07-12T11:57:23;2.17;;;1.98;;
19889;SDS011;10107;51.198;6.824;2022-07-12T12:01:26;2.67;;;2.47;;
19889;SDS011;10107;51.198;6.824;2022-07-12T12:05:28;2.33;;;2.10;;
19889;SDS011;10107;51.198;6.824;2022-07-12T12:13:55;2.60;;;2.40;;
19889;SDS011;10107;51.198;6.824;2022-07-12T12:18:00;4.38;;;2.60;;
19889;SDS011;10107;51.198;6.824;2022-07-12T12:22:03;2.63;;;2.42;;
19889;SDS011;10107;51.198;6.824;2022-07-12T12:30:27;3.05;;;2.10;;
19889;SDS011;10107;51.198;6.824;2022-07-12T12:34:31;2.70;;;2.50;;
19889;SDS011;10107;51.198;6.824;2022-07-12T12:38:33;4.18;;;2.90;;
19889;SDS011;10107;51.198;6.824;2022-07-12T12:42:37;2.33;;;1.90;;
19889;SDS011;10107;51.198;6.824;2022-07-12T12:46:42;3.05;;;2.28;;
19889;SDS011;10107;51.198;6.824;2022-07-12T12:50:46;2.53;;;2.10;;
19889;SDS011;10107;51.198;6.824;2022-07-12T12:54:49;2.10;;;1.90;;
19889;SDS011;10107;51.198;6.824;2022-07-12T12:58:51;2.93;;;1.80;;
19889;SDS011;10107;51.198;6.824;2022-07-12T13:02:53;2.50;;;2.30;;
19889;SDS011;10107;51.198;6.824;2022-07-12T13:07:00;2.97;;;1.90;;
19889;SDS011;10107;51.198;6.824;2022-07-12T13:11:02;2.70;;;2.00;;
19889;SDS011;10107;51.198;6.824;2022-07-12T13:15:19;2.70;;;2.15;;
19889;SDS011;10107;51.198;6.824;2022-07-12T13:19:22;3.85;;;2.55;;
19889;SDS011;10107;51.198;6.824;2022-07-12T13:23:25;2.10;;;1.90;;
19889;SDS011;10107;51.198;6.824;2022-07-12T13:27:27;2.30;;;2.10;;
19889;SDS011;10107;51.198;6.824;2022-07-12T13:31:29;1.90;;;1.80;;
19889;SDS011;10107;51.198;6.824;2022-07-12T13:35:31;2.60;;;2.00;;
19889;SDS011;10107;51.198;6.824;2022-07-12T13:39:34;3.03;;;2.27;;
19889;SDS011;10107;51.198;6.824;2022-07-12T13:43:54;2.33;;;2.13;;
19889;SDS011;10107;51.198;6.824;2022-07-12T13:47:55;2.67;;;2.07;;
19889;SDS011;10107;51.198;6.824;2022-07-12T13:51:57;2.67;;;2.17;;
19889;SDS011;10107;51.198;6.824;2022-07-12T13:56:03;2.28;;;2.08;;
19889;SDS011;10107;51.198;6.824;2022-07-12T14:00:06;2.20;;;2.00;;
19889;SDS011;10107;51.198;6.824;2022-07-12T14:04:14;3.30;;;2.20;;
19889;SDS011;10107;51.198;6.824;2022-07-12T14:08:16;3.00;;;2.50;;
19889;SDS011;10107;51.198;6.824;2022-07-12T14:12:19;2.67;;;2.47;;
19889;SDS011;10107;51.198;6.824;2022-07-12T14:16:21;3.20;;;2.90;;
19889;SDS011;10107;51.198;6.824;2022-07-12T14:20:23;5.13;;;2.60;;
19889;SDS011;10107;51.198;6.824;2022-07-12T14:24:25;2.70;;;2.45;;
19889;SDS011;10107;51.198;6.824;2022-07-12T14:28:28;2.55;;;2.05;;
19889;SDS011;10107;51.198;6.824;2022-07-12T14:32:30;2.45;;;2.25;;
19889;SDS011;10107;51.198;6.824;2022-07-12T14:36:33;2.67;;;2.42;;
19889;SDS011;10107;51.198;6.824;2022-07-12T14:40:35;2.15;;;1.95;;
19889;SDS011;10107;51.198;6.824;2022-07-12T14:44:38;2.50;;;2.30;;
19889;SDS011;10107;51.198;6.824;2022-07-12T14:48:40;2.15;;;1.95;;
19889;SDS011;10107;51.198;6.824;2022-07-12T14:52:42;2.30;;;2.10;;
19889;SDS011;10107;51.198;6.824;2022-07-12T14:56:44;2.47;;;1.90;;
19889;SDS011;10107;51.198;6.824;2022-07-12T15:00:48;2.10;;;1.90;;
19889;SDS011;10107;51.198;6.824;2022-07-12T15:04:49;2.05;;;1.92;;
19889;SDS011;10107;51.198;6.824;2022-07-12T15:08:52;2.27;;;1.70;;
19889;SDS011;10107;51.198;6.824;2022-07-12T15:12:54;2.23;;;1.73;;
19889;SDS011;10107;51.198;6.824;2022-07-12T15:16:57;2.10;;;1.77;;
19889;SDS011;10107;51.198;6.824;2022-07-12T15:20:59;3.05;;;1.83;;
19889;SDS011;10107;51.198;6.824;2022-07-12T15:25:01;1.83;;;1.48;;
19889;SDS011;10107;51.198;6.824;2022-07-12T15:29:03;2.60;;;2.00;;
19889;SDS011;10107;51.198;6.824;2022-07-12T15:33:06;2.03;;;1.83;;
19889;SDS011;10107;51.198;6.824;2022-07-12T15:37:08;2.15;;;1.65;;
19889;SDS011;10107;51.198;6.824;2022-07-12T15:41:11;1.60;;;1.50;;
19889;SDS011;10107;51.198;6.824;2022-07-12T15:45:14;1.98;;;1.77;;
19889;SDS011;10107;51.198;6.824;2022-07-12T15:49:17;1.87;;;1.50;;
19889;SDS011;10107;51.198;6.824;2022-07-12T15:53:19;1.58;;;1.48;;
19889;SDS011;10107;51.198;6.824;2022-07-12T15:57:28;1.63;;;1.35;;
19889;SDS011;10107;51.198;6.824;2022-07-12T16:01:30;1.95;;;1.70;;
19889;SDS011;10107;51.198;6.824;2022-07-12T16:05:34;1.85;;;1.60;;
19889;SDS011;10107;51.198;6.824;2022-07-12T16:09:37;2.15;;;1.60;;
19889;SDS011;10107;51.198;6.824;2022-07-12T16:13:40;2.27;;;1.70;;
19889;SDS011;10107;51.198;6.824;2022-07-12T16:17:41;1.70;;;1.60;;
19889;SDS011;10107;51.198;6.824;2022-07-12T16:21:45;1.70;;;1.35;;
19889;SDS011;10107;51.198;6.824;2022-07-12T16:25:47;2.35;;;1.73;;
19889;SDS011;10107;51.198;6.824;2022-07-12T16:29:49;2.72;;;1.73;;
19889;SDS011;10107;51.198;6.824;2022-07-12T16:33:51;2.28;;;1.67;;
19889;SDS011;10107;51.198;6.824;2022-07-12T16:37:55;1.42;;;1.27;;
19889;SDS011;10107;51.198;6.824;2022-07-12T16:41:57;2.25;;;1.88;;
19889;SDS011;10107;51.198;6.824;2022-07-12T16:45:59;2.88;;;1.67;;
19889;SDS011;10107;51.198;6.824;2022-07-12T16:50:01;1.43;;;1.27;;
19889;SDS011;10107;51.198;6.824;2022-07-12T16:54:05;2.15;;;1.90;;
19889;SDS011;10107;51.198;6.824;2022-07-12T16:58:07;2.65;;;2.10;;
19889;SDS011;10107;51.198;6.824;2022-07-12T17:02:08;2.65;;;2.05;;
19889;SDS011;10107;51.198;6.824;2022-07-12T17:06:10;2.35;;;1.73;;
19889;SDS011;10107;51.198;6.824;2022-07-12T17:10:14;2.55;;;2.25;;
19889;SDS011;10107;51.198;6.824;2022-07-12T17:14:16;2.97;;;2.05;;
19889;SDS011;10107;51.198;6.824;2022-07-12T17:18:18;3.30;;;1.83;;
19889;SDS011;10107;51.198;6.824;2022-07-12T17:22:21;2.08;;;1.90;;
19889;SDS011;10107;51.198;6.824;2022-07-12T17:26:25;2.45;;;1.90;;
19889;SDS011;10107;51.198;6.824;2022-07-12T17:30:27;1.92;;;1.83;;
19889;SDS011;10107;51.198;6.824;2022-07-12T17:34:31;3.33;;;2.30;;
19889;SDS011;10107;51.198;6.824;2022-07-12T17:38:34;2.03;;;1.83;;
19889;SDS011;10107;51.198;6.824;2022-07-12T17:42:38;3.38;;;1.90;;
19889;SDS011;10107;51.198;6.824;2022-07-12T17:46:40;2.08;;;1.77;;
19889;SDS011;10107;51.198;6.824;2022-07-12T17:50:42;2.53;;;2.22;;
19889;SDS011;10107;51.198;6.824;2022-07-12T17:54:44;3.00;;;2.28;;
19889;SDS011;10107;51.198;6.824;2022-07-12T17:58:48;3.00;;;2.15;;
19889;SDS011;10107;51.198;6.824;2022-07-12T18:02:50;1.60;;;1.50;;
19889;SDS011;10107;51.198;6.824;2022-07-12T18:06:52;2.00;;;1.75;;
19889;SDS011;10107;51.198;6.824;2022-07-12T18:14:59;2.00;;;1.65;;
19889;SDS011;10107;51.198;6.824;2022-07-12T18:19:02;2.42;;;1.90;;
19889;SDS011;10107;51.198;6.824;2022-07-12T18:23:04;2.15;;;1.95;;
19889;SDS011;10107;51.198;6.824;2022-07-12T18:27:07;2.30;;;2.10;;
19889;SDS011;10107;51.198;6.824;2022-07-12T18:31:10;2.05;;;1.80;;
19889;SDS011;10107;51.198;6.824;2022-07-12T18:35:14;2.80;;;2.20;;
19889;SDS011;10107;51.198;6.824;2022-07-12T18:39:17;3.15;;;2.13;;
19889;SDS011;10107;51.198;6.824;2022-07-12T18:43:19;2.03;;;1.80;;
19889;SDS011;10107;51.198;6.824;2022-07-12T18:47:22;2.00;;;1.67;;
19889;SDS011;10107;51.198;6.824;2022-07-12T18:51:24;2.10;;;1.90;;
19889;SDS011;10107;51.198;6.824;2022-07-12T18:55:27;1.60;;;1.47;;
19889;SDS011;10107;51.198;6.824;2022-07-12T18:59:29;2.35;;;2.08;;
19889;SDS011;10107;51.198;6.824;2022-07-12T19:03:33;2.50;;;2.17;;
19889;SDS011;10107;51.198;6.824;2022-07-12T19:07:35;2.00;;;1.80;;
19889;SDS011;10107;51.198;6.824;2022-07-12T19:11:37;2.13;;;1.92;;
19889;SDS011;10107;51.198;6.824;2022-07-12T19:15:40;2.78;;;1.98;;
19889;SDS011;10107;51.198;6.824;2022-07-12T19:19:44;2.28;;;2.08;;
19889;SDS011;10107;51.198;6.824;2022-07-12T19:27:49;2.83;;;2.63;;
19889;SDS011;10107;51.198;6.824;2022-07-12T19:31:53;2.70;;;2.35;;
19889;SDS011;10107;51.198;6.824;2022-07-12T19:35:57;2.17;;;1.85;;
19889;SDS011;10107;51.198;6.824;2022-07-12T19:39:59;2.47;;;2.28;;
19889;SDS011;10107;51.198;6.824;2022-07-12T19:44:01;2.30;;;2.10;;
19889;SDS011;10107;51.198;6.824;2022-07-12T19:48:03;2.53;;;1.90;;
19889;SDS011;10107;51.198;6.824;2022-07-12T19:52:09;2.55;;;2.33;;
19889;SDS011;10107;51.198;6.824;2022-07-12T20:00:13;2.40;;;2.17;;
19889;SDS011;10107;51.198;6.824;2022-07-12T20:04:16;3.20;;;2.67;;
19889;SDS011;10107;51.198;6.824;2022-07-12T20:08:20;3.10;;;2.65;;
19889;SDS011;10107;51.198;6.824;2022-07-12T20:12:22;2.80;;;2.50;;
19889;SDS011;10107;51.198;6.824;2022-07-12T20:16:24;2.70;;;2.50;;
19889;SDS011;10107;51.198;6.824;2022-07-12T20:20:27;2.50;;;2.30;;
19889;SDS011;10107;51.198;6.824;2022-07-12T20:24:31;3.67;;;2.20;;
19889;SDS011;10107;51.198;6.824;2022-07-12T20:32:35;2.90;;;2.33;;
19889;SDS011;10107;51.198;6.824;2022-07-12T20:36:58;4.22;;;2.17;;
19889;SDS011;10107;51.198;6.824;2022-07-12T20:45:07;3.28;;;2.63;;
19889;SDS011;10107;51.198;6.824;2022-07-12T20:49:10;3.07;;;2.60;;
19889;SDS011;10107;51.198;6.824;2022-07-12T20:53:13;2.70;;;2.35;;
19889;SDS011;10107;51.198;6.824;2022-07-12T20:57:17;2.30;;;2.10;;
19889;SDS011;10107;51.198;6.824;2022-07-12T21:01:19;3.20;;;2.70;;
19889;SDS011;10107;51.198;6.824;2022-07-12T21:05:21;3.47;;;2.95;;
19889;SDS011;10107;51.198;6.824;2022-07-12T21:09:25;3.00;;;2.70;;
19889;SDS011;10107;51.198;6.824;2022-07-12T21:13:31;3.70;;;3.30;;
19889;SDS011;10107;51.198;6.824;2022-07-12T21:17:37;3.67;;;3.10;;
19889;SDS011;10107;51.198;6.824;2022-07-12T21:21:43;4.90;;;3.47;;
19889;SDS011;10107;51.198;6.824;2022-07-12T21:25:45;4.15;;;3.33;;
19889;SDS011;10107;51.198;6.824;2022-07-12T21:29:49;4.87;;;3.60;;
19889;SDS011;10107;51.198;6.824;2022-07-12T21:33:53;4.15;;;3.08;;
19889;SDS011;10107;51.198;6.824;2022-07-12T21:37:58;3.70;;;3.30;;
19889;SDS011;10107;51.198;6.824;2022-07-12T21:42:00;3.88;;;3.40;;
19889;SDS011;10107;51.198;6.824;2022-07-12T21:46:04;5.72;;;3.33;;
19889;SDS011;10107;51.198;6.824;2022-07-12T21:50:06;4.47;;;3.22;;
19889;SDS011;10107;51.198;6.824;2022-07-12T21:54:09;4.72;;;3.40;;
19889;SDS011;10107;51.198;6.824;2022-07-12T21:58:11;3.95;;;3.53;;
19889;SDS011;10107;51.198;6.824;2022-07-12T22:02:15;4.07;;;3.67;;
19889;SDS011;10107;51.198;6.824;2022-07-12T22:06:17;4.43;;;3.25;;
19889;SDS011;10107;51.198;6.824;2022-07-12T22:10:19;4.93;;;3.55;;
19889;SDS011;10107;51.198;6.824;2022-07-12T22:14:21;2.90;;;2.50;;
19889;SDS011;10107;51.198;6.824;2022-07-12T22:18:24;2.75;;;2.40;;
19889;SDS011;10107;51.198;6.824;2022-07-12T22:22:26;3.30;;;2.78;;
19889;SDS011;10107;51.198;6.824;2022-07-12T22:26:28;3.65;;;2.70;;
19889;SDS011;10107;51.198;6.824;2022-07-12T22:30:30;4.63;;;3.08;;
19889;SDS011;10107;51.198;6.824;2022-07-12T22:34:33;3.80;;;2.90;;
19889;SDS011;10107;51.198;6.824;2022-07-12T22:38:35;3.78;;;3.22;;
19889;SDS011;10107;51.198;6.824;2022-07-12T22:42:39;3.90;;;3.50;;
19889;SDS011;10107;51.198;6.824;2022-07-12T22:46:41;3.40;;;3.10;;
19889;SDS011;10107;51.198;6.824;2022-07-12T22:50:45;5.05;;;3.47;;
19889;SDS011;10107;51.198;6.824;2022-07-12T22:55:05;3.30;;;2.72;;
19889;SDS011;10107;51.198;6.824;2022-07-12T22:59:07;4.80;;;3.60;;
19889;SDS011;10107;51.198;6.824;2022-07-12T23:03:11;3.92;;;3.55;;
19889;SDS011;10107;51.198;6.824;2022-07-12T23:07:14;4.55;;;3.72;;
19889;SDS011;10107;51.198;6.824;2022-07-12T23:11:16;3.85;;;3.33;;
19889;SDS011;10107;51.198;6.824;2022-07-12T23:15:18;4.25;;;3.70;;
19889;SDS011;10107;51.198;6.824;2022-07-12T23:19:21;5.25;;;3.70;;
19889;SDS011;10107;51.198;6.824;2022-07-12T23:23:24;4.47;;;3.80;;
19889;SDS011;10107;51.198;6.824;2022-07-12T23:27:28;4.78;;;3.50;;
19889;SDS011;10107;51.198;6.824;2022-07-12T23:31:30;4.60;;;4.00;;
19889;SDS011;10107;51.198;6.824;2022-07-12T23:35:32;3.78;;;3.30;;
19889;SDS011;10107;51.198;6.824;2022-07-12T23:39:36;4.38;;;3.65;;
19889;SDS011;10107;51.198;6.824;2022-07-12T23:43:39;4.00;;;3.50;;
19889;SDS011;10107;51.198;6.824;2022-07-12T23:47:40;5.03;;;3.50;;
19889;SDS011;10107;51.198;6.824;2022-07-12T23:51:44;3.75;;;3.03;;
19889;SDS011;10107;51.198;6.824;2022-07-12T23:55:47;3.45;;;3.15;;
19889;SDS011;10107;51.198;6.824;2022-07-12T23:59:50;4.38;;;3.90;;
